createdAt,value
2023-03-30T00:00:33.008Z,37.22
2023-03-30T00:01:33.030Z,37.71
2023-03-30T00:02:33.029Z,38.51
2023-03-30T00:03:33.285Z,37.71
2023-03-30T00:04:33.033Z,37.54
2023-03-30T00:05:32.980Z,37.54
2023-03-30T00:06:32.998Z,37.22
2023-03-30T00:07:32.956Z,37.87
2023-03-30T00:08:32.944Z,37.87
2023-03-30T00:09:32.934Z,37.38
2023-03-30T00:10:32.960Z,37.54
2023-03-30T00:11:32.953Z,38.03
2023-03-30T00:12:32.971Z,37.71
2023-03-30T00:13:32.926Z,37.54
2023-03-30T00:14:32.900Z,37.54
2023-03-30T00:15:32.957Z,37.06
2023-03-30T00:16:33.050Z,37.22
2023-03-30T00:17:33.027Z,37.22
2023-03-30T00:18:32.873Z,37.22
2023-03-30T00:19:32.858Z,37.22
2023-03-30T00:20:32.900Z,38.19
2023-03-30T00:21:33.870Z,39.64
2023-03-30T00:22:32.840Z,38.51
2023-03-30T00:23:32.832Z,38.83
2023-03-30T00:24:32.856Z,37.54
2023-03-30T00:25:32.917Z,41.57
2023-03-30T00:26:32.841Z,38.99
2023-03-30T00:27:32.810Z,39.48
2023-03-30T00:28:32.837Z,39.48
2023-03-30T00:29:32.827Z,39.80
2023-03-30T00:30:32.786Z,38.03
2023-03-30T00:31:32.830Z,38.19
2023-03-30T00:32:32.778Z,37.54
2023-03-30T00:33:44.588Z,37.38
2023-03-30T00:34:34.755Z,38.83
2023-03-30T00:35:32.769Z,37.22
2023-03-30T00:36:32.773Z,37.71
2023-03-30T00:37:32.738Z,37.38
2023-03-30T00:38:32.742Z,36.90
2023-03-30T00:39:32.713Z,37.87
2023-03-30T00:40:32.726Z,37.22
2023-03-30T00:41:32.759Z,38.19
2023-03-30T00:42:32.694Z,37.54
2023-03-30T00:43:32.693Z,37.38
2023-03-30T00:44:32.718Z,38.35
2023-03-30T00:45:32.682Z,37.54
2023-03-30T00:46:32.851Z,37.06
2023-03-30T00:47:32.657Z,38.67
2023-03-30T00:48:32.643Z,48.82
2023-03-30T00:49:33.673Z,37.54
2023-03-30T00:50:32.634Z,36.90
2023-03-30T00:51:32.653Z,37.71
2023-03-30T00:52:32.610Z,37.54
2023-03-30T00:53:32.633Z,37.54
2023-03-30T00:54:32.604Z,38.51
2023-03-30T00:55:32.594Z,38.35
2023-03-30T00:56:32.613Z,38.03
2023-03-30T00:57:32.584Z,38.03
2023-03-30T00:58:32.577Z,38.19
2023-03-30T00:59:32.562Z,38.51
2023-03-30T01:00:32.556Z,38.19
2023-03-30T01:01:32.591Z,40.93
2023-03-30T01:02:32.764Z,38.67
2023-03-30T01:03:32.695Z,37.71
2023-03-30T01:04:32.549Z,38.19
2023-03-30T01:05:32.521Z,38.67
2023-03-30T01:06:32.566Z,41.57
2023-03-30T01:07:32.511Z,38.03
2023-03-30T01:08:32.600Z,41.25
2023-03-30T01:09:32.515Z,37.22
2023-03-30T01:10:32.488Z,37.54
2023-03-30T01:11:32.504Z,39.16
2023-03-30T01:12:32.473Z,36.58
2023-03-30T01:13:32.460Z,37.71
2023-03-30T01:14:32.459Z,38.35
2023-03-30T01:15:32.481Z,41.09
2023-03-30T01:16:32.489Z,38.83
2023-03-30T01:17:32.462Z,38.83
2023-03-30T01:18:32.423Z,42.38
2023-03-30T01:19:32.419Z,39.32
2023-03-30T01:20:32.420Z,38.67
2023-03-30T01:21:32.440Z,44.79
2023-03-30T01:22:32.398Z,38.35
2023-03-30T01:23:32.383Z,38.51
2023-03-30T01:24:32.377Z,37.71
2023-03-30T01:25:32.365Z,37.87
2023-03-30T01:26:32.396Z,38.67
2023-03-30T01:27:32.354Z,37.54
2023-03-30T01:28:32.358Z,38.19
2023-03-30T01:29:32.353Z,38.19
2023-03-30T01:30:32.337Z,38.67
2023-03-30T01:31:32.351Z,38.19
2023-03-30T01:32:32.375Z,38.03
2023-03-30T01:33:32.339Z,37.54
2023-03-30T01:34:32.323Z,38.19
2023-03-30T01:35:32.488Z,37.54
2023-03-30T01:36:32.325Z,41.73
2023-03-30T01:37:32.351Z,37.06
2023-03-30T01:38:32.278Z,37.71
2023-03-30T01:39:32.277Z,38.03
2023-03-30T01:40:32.258Z,39.32
2023-03-30T01:41:32.251Z,40.12
2023-03-30T01:42:32.269Z,37.87
2023-03-30T01:43:32.240Z,37.54
2023-03-30T01:44:32.225Z,39.96
2023-03-30T01:45:32.216Z,37.38
2023-03-30T01:46:32.234Z,38.67
2023-03-30T01:47:32.244Z,37.71
2023-03-30T01:48:32.195Z,38.51
2023-03-30T01:49:32.212Z,37.22
2023-03-30T01:50:32.204Z,38.51
2023-03-30T01:51:32.227Z,40.28
2023-03-30T01:52:32.192Z,37.38
2023-03-30T01:53:32.166Z,37.06
2023-03-30T01:54:32.158Z,36.90
2023-03-30T01:55:32.145Z,37.06
2023-03-30T01:56:32.142Z,42.22
2023-03-30T01:57:32.157Z,38.03
2023-03-30T01:58:32.123Z,36.74
2023-03-30T01:59:32.119Z,37.06
2023-03-30T02:00:32.125Z,37.22
2023-03-30T02:01:32.128Z,39.16
2023-03-30T02:02:32.185Z,37.22
2023-03-30T02:03:32.160Z,37.87
2023-03-30T02:04:32.089Z,38.67
2023-03-30T02:05:32.079Z,37.87
2023-03-30T02:06:32.067Z,38.99
2023-03-30T02:07:32.151Z,38.99
2023-03-30T02:08:32.069Z,37.38
2023-03-30T02:09:32.054Z,39.80
2023-03-30T02:10:32.043Z,37.38
2023-03-30T02:11:32.043Z,37.54
2023-03-30T02:12:32.056Z,38.83
2023-03-30T02:13:32.015Z,43.02
2023-03-30T02:14:32.031Z,37.22
2023-03-30T02:15:32.002Z,37.54
2023-03-30T02:16:32.014Z,37.06
2023-03-30T02:17:32.076Z,37.87
2023-03-30T02:18:31.983Z,39.64
2023-03-30T02:19:31.975Z,38.03
2023-03-30T02:20:31.967Z,40.77
2023-03-30T02:21:31.988Z,43.83
2023-03-30T02:22:31.974Z,40.12
2023-03-30T02:23:31.946Z,37.22
2023-03-30T02:24:31.925Z,37.54
2023-03-30T02:25:31.924Z,38.51
2023-03-30T02:26:31.916Z,37.38
2023-03-30T02:27:31.933Z,38.19
2023-03-30T02:28:31.903Z,38.19
2023-03-30T02:29:31.888Z,38.51
2023-03-30T02:30:31.880Z,40.12
2023-03-30T02:31:31.908Z,39.16
2023-03-30T02:32:31.974Z,41.73
2023-03-30T02:33:31.858Z,37.38
2023-03-30T02:34:31.860Z,39.32
2023-03-30T02:35:31.899Z,38.35
2023-03-30T02:36:31.839Z,39.96
2023-03-30T02:37:31.851Z,37.71
2023-03-30T02:38:31.829Z,38.67
2023-03-30T02:39:31.824Z,40.93
2023-03-30T02:40:31.808Z,43.51
2023-03-30T02:41:31.794Z,39.80
2023-03-30T02:42:31.839Z,38.19
2023-03-30T02:43:31.810Z,39.80
2023-03-30T02:44:31.783Z,41.73
2023-03-30T02:45:31.783Z,39.32
2023-03-30T02:46:31.769Z,39.96
2023-03-30T02:47:31.814Z,37.54
2023-03-30T02:48:31.744Z,37.87
2023-03-30T02:49:31.743Z,41.57
2023-03-30T02:50:31.752Z,39.64
2023-03-30T02:51:31.729Z,38.51
2023-03-30T02:52:31.717Z,38.03
2023-03-30T02:53:31.741Z,38.83
2023-03-30T02:54:31.724Z,38.67
2023-03-30T02:55:31.728Z,39.48
2023-03-30T02:56:31.687Z,38.67
2023-03-30T02:57:31.717Z,38.51
2023-03-30T02:58:31.699Z,42.22
2023-03-30T02:59:31.663Z,37.71
2023-03-30T03:00:31.658Z,38.99
2023-03-30T03:01:31.700Z,42.06
2023-03-30T03:02:31.710Z,38.51
2023-03-30T03:03:31.767Z,39.96
2023-03-30T03:04:31.639Z,41.89
2023-03-30T03:05:31.620Z,40.12
2023-03-30T03:06:31.617Z,43.67
2023-03-30T03:07:31.608Z,37.06
2023-03-30T03:08:31.621Z,40.44
2023-03-30T03:09:31.588Z,38.35
2023-03-30T03:10:31.580Z,40.12
2023-03-30T03:11:31.638Z,39.48
2023-03-30T03:12:31.572Z,39.16
2023-03-30T03:13:31.588Z,40.28
2023-03-30T03:14:31.609Z,42.06
2023-03-30T03:15:31.551Z,41.25
2023-03-30T03:16:31.574Z,40.93
2023-03-30T03:17:31.567Z,45.60
2023-03-30T03:18:31.785Z,46.73
2023-03-30T03:19:31.531Z,45.60
2023-03-30T03:20:31.508Z,47.53
2023-03-30T03:21:31.507Z,50.27
2023-03-30T03:22:31.536Z,47.37
2023-03-30T03:23:32.116Z,48.18
2023-03-30T03:24:31.480Z,48.18
2023-03-30T03:25:31.479Z,47.21
2023-03-30T03:26:31.468Z,49.79
2023-03-30T03:27:31.456Z,44.47
2023-03-30T03:28:31.476Z,44.79
2023-03-30T03:29:31.485Z,52.69
2023-03-30T03:30:31.439Z,54.46
2023-03-30T03:31:31.485Z,52.21
2023-03-30T03:32:31.449Z,51.72
2023-03-30T03:33:31.439Z,49.31
2023-03-30T03:34:31.449Z,55.43
2023-03-30T03:35:31.517Z,43.51
2023-03-30T03:36:31.380Z,43.99
2023-03-30T03:37:31.381Z,40.93
2023-03-30T03:38:31.369Z,53.17
2023-03-30T03:39:31.391Z,53.17
2023-03-30T03:40:31.360Z,45.92
2023-03-30T03:41:31.351Z,40.77
2023-03-30T03:42:31.401Z,40.12
2023-03-30T03:43:31.353Z,42.70
2023-03-30T03:44:31.365Z,46.73
2023-03-30T03:45:31.321Z,46.89
2023-03-30T03:46:31.368Z,40.28
2023-03-30T03:47:31.340Z,52.37
2023-03-30T03:48:31.288Z,49.47
2023-03-30T03:49:31.310Z,50.11
2023-03-30T03:50:31.283Z,43.99
2023-03-30T03:51:31.277Z,41.89
2023-03-30T03:52:31.267Z,42.70
2023-03-30T03:53:31.254Z,44.79
2023-03-30T03:54:31.276Z,43.83
2023-03-30T03:55:31.243Z,48.50
2023-03-30T03:56:31.246Z,49.79
2023-03-30T03:57:31.266Z,44.96
2023-03-30T03:58:31.247Z,39.80
2023-03-30T03:59:31.246Z,39.32
2023-03-30T04:00:31.217Z,40.28
2023-03-30T04:01:31.208Z,42.06
2023-03-30T04:02:31.288Z,46.57
2023-03-30T04:03:31.200Z,43.34
2023-03-30T04:04:31.220Z,39.96
2023-03-30T04:05:31.171Z,47.05
2023-03-30T04:06:31.165Z,41.41
2023-03-30T04:07:31.160Z,42.06
2023-03-30T04:08:31.154Z,41.41
2023-03-30T04:09:31.160Z,40.77
2023-03-30T04:10:31.121Z,46.08
2023-03-30T04:11:31.181Z,41.89
2023-03-30T04:12:31.108Z,45.44
2023-03-30T04:13:31.120Z,42.54
2023-03-30T04:14:31.119Z,48.34
2023-03-30T04:15:31.081Z,52.05
2023-03-30T04:16:31.141Z,44.79
2023-03-30T04:17:31.074Z,47.21
2023-03-30T04:18:31.059Z,47.86
2023-03-30T04:19:31.083Z,48.98
2023-03-30T04:20:31.049Z,45.28
2023-03-30T04:21:31.041Z,45.28
2023-03-30T04:22:31.050Z,48.82
2023-03-30T04:23:31.021Z,47.05
2023-03-30T04:24:31.050Z,46.25
2023-03-30T04:25:31.018Z,48.34
2023-03-30T04:26:31.013Z,47.05
2023-03-30T04:27:30.986Z,52.37
2023-03-30T04:28:30.991Z,52.69
2023-03-30T04:29:31.010Z,49.79
2023-03-30T04:30:30.975Z,43.83
2023-03-30T04:31:31.004Z,47.86
2023-03-30T04:32:31.016Z,50.92
2023-03-30T04:33:30.974Z,53.50
2023-03-30T04:34:31.131Z,51.72
2023-03-30T04:35:31.052Z,46.41
2023-03-30T04:36:30.924Z,53.66
2023-03-30T04:37:30.928Z,51.40
2023-03-30T04:38:30.920Z,52.53
2023-03-30T04:39:30.917Z,47.37
2023-03-30T04:40:30.922Z,47.05
2023-03-30T04:41:30.897Z,45.60
2023-03-30T04:42:30.883Z,51.72
2023-03-30T04:43:30.887Z,45.60
2023-03-30T04:44:30.867Z,46.25
2023-03-30T04:45:30.946Z,49.31
2023-03-30T04:46:30.854Z,56.07
2023-03-30T04:47:30.881Z,43.99
2023-03-30T04:48:30.847Z,51.88
2023-03-30T04:49:30.828Z,51.88
2023-03-30T04:50:30.848Z,48.02
2023-03-30T04:51:30.810Z,50.92
2023-03-30T04:52:30.812Z,52.69
2023-03-30T04:53:30.799Z,46.73
2023-03-30T04:54:33.163Z,47.70
2023-03-30T04:55:31.813Z,53.33
2023-03-30T04:56:30.780Z,51.88
2023-03-30T04:57:30.807Z,49.15
2023-03-30T04:58:30.764Z,46.73
2023-03-30T04:59:30.757Z,55.11
2023-03-30T05:00:30.765Z,51.72
2023-03-30T05:01:30.790Z,44.47
2023-03-30T05:02:30.845Z,53.33
2023-03-30T05:03:30.796Z,42.70
2023-03-30T05:04:30.713Z,53.98
2023-03-30T05:05:30.735Z,52.53
2023-03-30T05:06:30.699Z,51.72
2023-03-30T05:07:30.696Z,48.34
2023-03-30T05:08:30.732Z,46.89
2023-03-30T05:09:30.714Z,51.40
2023-03-30T05:10:30.699Z,46.89
2023-03-30T05:11:30.667Z,54.46
2023-03-30T05:12:30.661Z,49.79
2023-03-30T05:13:30.644Z,53.82
2023-03-30T05:14:30.646Z,43.99
2023-03-30T05:15:30.661Z,52.37
2023-03-30T05:16:30.693Z,46.89
2023-03-30T05:17:30.643Z,46.08
2023-03-30T05:18:30.615Z,53.50
2023-03-30T05:19:30.600Z,52.21
2023-03-30T05:20:30.622Z,51.56
2023-03-30T05:21:30.579Z,46.41
2023-03-30T05:22:31.570Z,49.47
2023-03-30T05:23:30.565Z,51.88
2023-03-30T05:24:30.605Z,53.01
2023-03-30T05:25:30.576Z,55.59
2023-03-30T05:26:30.569Z,50.60
2023-03-30T05:27:30.547Z,54.62
2023-03-30T05:28:32.399Z,46.08
2023-03-30T05:29:31.549Z,50.43
2023-03-30T05:30:30.539Z,47.53
2023-03-30T05:31:30.528Z,45.92
2023-03-30T05:32:30.580Z,46.57
2023-03-30T05:33:30.500Z,47.37
2023-03-30T05:34:30.507Z,48.82
2023-03-30T05:35:30.510Z,48.82
2023-03-30T05:36:30.476Z,50.43
2023-03-30T05:37:30.477Z,48.34
2023-03-30T05:38:30.462Z,46.89
2023-03-30T05:39:30.527Z,46.57
2023-03-30T05:40:30.517Z,53.01
2023-03-30T05:41:30.447Z,47.37
2023-03-30T05:42:30.419Z,50.60
2023-03-30T05:43:30.417Z,47.05
2023-03-30T05:44:31.408Z,47.53
2023-03-30T05:45:30.464Z,46.73
2023-03-30T05:46:30.453Z,48.82
2023-03-30T05:47:30.435Z,50.27
2023-03-30T05:48:30.379Z,51.24
2023-03-30T05:49:30.375Z,47.05
2023-03-30T05:50:30.392Z,47.05
2023-03-30T05:51:30.360Z,47.53
2023-03-30T05:52:30.343Z,53.82
2023-03-30T05:53:30.399Z,49.15
2023-03-30T05:54:30.329Z,50.60
2023-03-30T05:55:30.363Z,49.95
2023-03-30T05:56:30.324Z,46.41
2023-03-30T05:57:30.401Z,53.98
2023-03-30T05:58:30.304Z,47.21
2023-03-30T05:59:30.295Z,44.47
2023-03-30T06:00:30.320Z,49.79
2023-03-30T06:01:30.280Z,44.15
2023-03-30T06:02:30.333Z,50.76
2023-03-30T06:03:30.380Z,53.33
2023-03-30T06:04:30.293Z,45.44
2023-03-30T06:05:30.291Z,52.05
2023-03-30T06:06:30.243Z,45.76
2023-03-30T06:07:30.259Z,44.96
2023-03-30T06:08:30.225Z,52.69
2023-03-30T06:09:30.232Z,47.05
2023-03-30T06:10:30.251Z,41.41
2023-03-30T06:11:30.211Z,42.06
2023-03-30T06:12:30.206Z,47.05
2023-03-30T06:13:30.193Z,48.34
2023-03-30T06:14:30.189Z,50.92
2023-03-30T06:15:30.208Z,50.76
2023-03-30T06:16:30.205Z,49.15
2023-03-30T06:17:30.226Z,45.76
2023-03-30T06:18:30.801Z,53.82
2023-03-30T06:19:30.141Z,48.18
2023-03-30T06:20:30.163Z,45.28
2023-03-30T06:21:30.133Z,43.51
2023-03-30T06:22:31.977Z,46.89
2023-03-30T06:23:31.138Z,51.40
2023-03-30T06:24:30.112Z,49.31
2023-03-30T06:25:30.145Z,47.37
2023-03-30T06:26:30.093Z,43.18
2023-03-30T06:27:30.091Z,43.34
2023-03-30T06:28:30.080Z,45.76
2023-03-30T06:29:30.069Z,42.86
2023-03-30T06:30:30.165Z,54.95
2023-03-30T06:31:30.102Z,48.18
2023-03-30T06:32:30.110Z,47.86
2023-03-30T06:33:30.046Z,49.63
2023-03-30T06:34:30.032Z,48.98
2023-03-30T06:35:30.059Z,44.31
2023-03-30T06:36:45.228Z,43.67
2023-03-30T06:37:31.019Z,46.57
2023-03-30T06:38:30.008Z,47.70
2023-03-30T06:39:30.056Z,52.53
2023-03-30T06:40:30.013Z,47.86
2023-03-30T06:41:29.974Z,53.01
2023-03-30T06:42:29.974Z,45.12
2023-03-30T06:43:29.961Z,47.53
2023-03-30T06:44:29.948Z,49.79
2023-03-30T06:45:29.965Z,45.12
2023-03-30T06:46:30.020Z,49.95
2023-03-30T06:47:29.937Z,55.75
2023-03-30T06:48:29.935Z,48.98
2023-03-30T06:49:29.913Z,42.70
2023-03-30T06:50:29.897Z,46.57
2023-03-30T06:51:29.917Z,44.47
2023-03-30T06:52:29.880Z,49.79
2023-03-30T06:53:30.138Z,42.38
2023-03-30T06:54:29.884Z,46.08
2023-03-30T06:55:29.878Z,45.92
2023-03-30T06:56:29.888Z,47.70
2023-03-30T06:57:29.893Z,47.86
2023-03-30T06:58:29.840Z,45.12
2023-03-30T06:59:31.417Z,47.05
2023-03-30T07:00:29.903Z,49.15
2023-03-30T07:01:29.899Z,45.44
2023-03-30T07:02:29.844Z,47.70
2023-03-30T07:03:29.798Z,50.92
2023-03-30T07:04:29.818Z,52.05
2023-03-30T07:05:29.798Z,43.83
2023-03-30T07:06:29.850Z,47.70
2023-03-30T07:07:29.772Z,44.79
2023-03-30T07:08:29.756Z,43.83
2023-03-30T07:09:29.920Z,46.57
2023-03-30T07:10:29.755Z,45.76
2023-03-30T07:11:29.764Z,48.02
2023-03-30T07:12:29.741Z,47.21
2023-03-30T07:13:29.735Z,51.56
2023-03-30T07:14:29.714Z,46.25
2023-03-30T07:15:29.721Z,48.98
2023-03-30T07:16:29.758Z,46.08
2023-03-30T07:17:29.801Z,50.76
2023-03-30T07:18:29.712Z,56.40
2023-03-30T07:19:29.679Z,44.96
2023-03-30T07:20:30.208Z,49.31
2023-03-30T07:21:29.694Z,51.40
2023-03-30T07:22:29.650Z,50.27
2023-03-30T07:23:29.692Z,51.24
2023-03-30T07:24:29.663Z,51.24
2023-03-30T07:25:29.649Z,46.73
2023-03-30T07:26:29.652Z,53.33
2023-03-30T07:27:29.611Z,47.37
2023-03-30T07:28:29.622Z,45.60
2023-03-30T07:29:29.613Z,49.15
2023-03-30T07:30:29.600Z,52.85
2023-03-30T07:31:29.677Z,45.28
2023-03-30T07:32:29.640Z,47.05
2023-03-30T07:33:29.605Z,46.57
2023-03-30T07:34:29.574Z,41.25
2023-03-30T07:35:29.555Z,54.79
2023-03-30T07:36:29.578Z,47.37
2023-03-30T07:37:29.551Z,47.37
2023-03-30T07:38:29.528Z,48.82
2023-03-30T07:39:32.117Z,50.92
2023-03-30T07:40:29.557Z,44.63
2023-03-30T07:41:29.538Z,47.86
2023-03-30T07:42:29.510Z,52.05
2023-03-30T07:43:29.500Z,47.21
2023-03-30T07:44:29.486Z,50.76
2023-03-30T07:45:29.473Z,49.63
2023-03-30T07:46:29.570Z,47.70
2023-03-30T07:47:29.492Z,49.31
2023-03-30T07:48:29.465Z,45.92
2023-03-30T07:49:29.442Z,53.82
2023-03-30T07:50:29.445Z,54.95
2023-03-30T07:51:29.472Z,45.92
2023-03-30T07:52:29.441Z,51.88
2023-03-30T07:53:29.423Z,48.50
2023-03-30T07:54:29.425Z,46.57
2023-03-30T07:55:29.403Z,51.40
2023-03-30T07:56:29.437Z,49.15
2023-03-30T07:57:29.580Z,45.92
2023-03-30T07:58:29.387Z,43.99
2023-03-30T07:59:29.368Z,48.18
2023-03-30T08:00:29.360Z,50.27
2023-03-30T08:01:29.384Z,43.99
2023-03-30T08:02:29.387Z,45.76
2023-03-30T08:03:29.538Z,49.63
2023-03-30T08:04:29.419Z,48.02
2023-03-30T08:05:29.327Z,52.69
2023-03-30T08:06:29.348Z,45.28
2023-03-30T08:07:29.307Z,48.66
2023-03-30T08:08:29.316Z,45.92
2023-03-30T08:09:29.289Z,47.37
2023-03-30T08:10:29.286Z,51.24
2023-03-30T08:11:29.320Z,48.98
2023-03-30T08:12:29.267Z,50.92
2023-03-30T08:13:29.260Z,49.31
2023-03-30T08:14:29.253Z,47.86
2023-03-30T08:15:29.255Z,51.88
2023-03-30T08:16:29.276Z,43.83
2023-03-30T08:17:29.345Z,45.12
2023-03-30T08:18:29.325Z,49.31
2023-03-30T08:19:29.219Z,46.57
2023-03-30T08:20:29.209Z,47.05
2023-03-30T08:21:29.234Z,45.44
2023-03-30T08:22:29.201Z,53.50
2023-03-30T08:23:29.185Z,47.05
2023-03-30T08:24:29.204Z,50.11
2023-03-30T08:25:29.211Z,49.79
2023-03-30T08:26:29.190Z,52.53
2023-03-30T08:27:29.193Z,45.12
2023-03-30T08:28:29.158Z,47.37
2023-03-30T08:29:29.147Z,51.88
2023-03-30T08:30:29.138Z,47.21
2023-03-30T08:31:29.208Z,43.02
2023-03-30T08:32:29.166Z,46.73
2023-03-30T08:33:29.110Z,42.22
2023-03-30T08:34:29.143Z,45.28
2023-03-30T08:35:29.147Z,50.92
2023-03-30T08:36:29.123Z,47.70
2023-03-30T08:37:29.081Z,44.31
2023-03-30T08:38:29.076Z,46.25
2023-03-30T08:39:29.068Z,48.18
2023-03-30T08:40:29.062Z,48.82
2023-03-30T08:41:29.085Z,49.79
2023-03-30T08:42:29.045Z,42.38
2023-03-30T08:43:29.033Z,52.85
2023-03-30T08:44:29.055Z,45.28
2023-03-30T08:45:29.064Z,50.60
2023-03-30T08:46:29.194Z,49.31
2023-03-30T08:47:29.037Z,45.60
2023-03-30T08:48:29.003Z,45.60
2023-03-30T08:49:28.997Z,44.31
2023-03-30T08:50:28.980Z,45.92
2023-03-30T08:51:29.000Z,48.34
2023-03-30T08:52:28.974Z,51.08
2023-03-30T08:53:28.974Z,48.18
2023-03-30T08:54:29.032Z,44.63
2023-03-30T08:55:28.955Z,51.40
2023-03-30T08:56:29.356Z,47.37
2023-03-30T08:57:28.955Z,43.02
2023-03-30T08:58:28.918Z,48.02
2023-03-30T08:59:28.919Z,49.95
2023-03-30T09:00:28.999Z,46.73
2023-03-30T09:01:29.997Z,44.31
2023-03-30T09:02:28.931Z,46.41
2023-03-30T09:03:28.905Z,51.40
2023-03-30T09:04:28.875Z,48.82
2023-03-30T09:05:28.987Z,49.31
2023-03-30T09:06:28.885Z,51.40
2023-03-30T09:07:28.837Z,51.40
2023-03-30T09:08:28.851Z,45.76
2023-03-30T09:09:28.831Z,46.89
2023-03-30T09:10:28.881Z,43.34
2023-03-30T09:11:28.908Z,50.43
2023-03-30T09:12:28.836Z,51.40
2023-03-30T09:13:28.806Z,50.76
2023-03-30T09:14:28.799Z,46.89
2023-03-30T09:15:30.492Z,49.79
2023-03-30T09:16:28.898Z,47.70
2023-03-30T09:17:28.829Z,51.88
2023-03-30T09:18:28.759Z,46.08
2023-03-30T09:19:28.802Z,51.24
2023-03-30T09:20:28.752Z,47.53
2023-03-30T09:21:28.765Z,44.79
2023-03-30T09:22:28.909Z,43.99
2023-03-30T09:23:28.732Z,44.79
2023-03-30T09:24:28.721Z,48.82
2023-03-30T09:25:28.722Z,51.40
2023-03-30T09:26:28.710Z,46.41
2023-03-30T09:27:28.736Z,43.51
2023-03-30T09:28:28.692Z,43.02
2023-03-30T09:29:28.685Z,51.40
2023-03-30T09:30:28.673Z,52.37
2023-03-30T09:31:28.700Z,43.99
2023-03-30T09:32:28.727Z,47.70
2023-03-30T09:33:28.686Z,54.30
2023-03-30T09:34:28.656Z,53.50
2023-03-30T09:35:28.656Z,52.85
2023-03-30T09:36:28.675Z,53.01
2023-03-30T09:37:28.637Z,47.05
2023-03-30T09:38:29.619Z,46.73
2023-03-30T09:39:29.240Z,52.85
2023-03-30T09:40:28.612Z,47.86
2023-03-30T09:41:28.599Z,50.92
2023-03-30T09:42:28.618Z,51.72
2023-03-30T09:43:28.575Z,50.76
2023-03-30T09:44:28.580Z,48.82
2023-03-30T09:45:29.731Z,48.82
2023-03-30T09:46:28.589Z,54.62
2023-03-30T09:47:28.650Z,45.12
2023-03-30T09:48:28.536Z,45.92
2023-03-30T09:49:28.526Z,50.92
2023-03-30T09:50:28.576Z,50.43
2023-03-30T09:51:30.698Z,46.08
2023-03-30T09:52:29.571Z,40.93
2023-03-30T09:53:28.503Z,50.60
2023-03-30T09:54:28.494Z,50.92
2023-03-30T09:55:28.498Z,50.11
2023-03-30T09:56:28.550Z,44.47
2023-03-30T09:57:28.610Z,46.08
2023-03-30T09:58:28.455Z,47.86
2023-03-30T09:59:28.458Z,47.37
2023-03-30T10:00:28.449Z,47.37
2023-03-30T10:01:28.504Z,45.12
2023-03-30T10:02:28.498Z,43.34
2023-03-30T10:03:28.552Z,48.82
2023-03-30T10:04:28.454Z,47.53
2023-03-30T10:05:28.408Z,44.96
2023-03-30T10:06:28.399Z,50.27
2023-03-30T10:07:28.421Z,43.02
2023-03-30T10:08:28.395Z,49.95
2023-03-30T10:09:28.379Z,46.73
2023-03-30T10:10:28.363Z,45.44
2023-03-30T10:11:28.360Z,51.56
2023-03-30T10:12:28.399Z,46.25
2023-03-30T10:13:28.350Z,49.63
2023-03-30T10:14:29.050Z,48.18
2023-03-30T10:15:31.264Z,48.34
2023-03-30T10:16:28.404Z,48.98
2023-03-30T10:17:28.447Z,53.66
2023-03-30T10:18:28.341Z,44.63
2023-03-30T10:19:28.419Z,51.88
2023-03-30T10:20:28.291Z,45.44
2023-03-30T10:21:29.561Z,47.37
2023-03-30T10:22:28.276Z,45.92
2023-03-30T10:23:28.295Z,43.02
2023-03-30T10:24:29.270Z,44.96
2023-03-30T10:25:28.256Z,41.89
2023-03-30T10:26:28.236Z,50.92
2023-03-30T10:27:29.321Z,47.86
2023-03-30T10:28:28.224Z,46.08
2023-03-30T10:29:28.224Z,44.96
2023-03-30T10:30:28.227Z,56.24
2023-03-30T10:31:28.485Z,46.57
2023-03-30T10:32:28.266Z,51.56
2023-03-30T10:33:28.211Z,49.31
2023-03-30T10:34:28.194Z,49.31
2023-03-30T10:35:28.207Z,48.02
2023-03-30T10:36:28.162Z,45.76
2023-03-30T10:37:28.176Z,52.85
2023-03-30T10:38:28.181Z,48.66
2023-03-30T10:39:28.134Z,47.86
2023-03-30T10:40:28.133Z,46.57
2023-03-30T10:41:28.135Z,49.15
2023-03-30T10:42:28.197Z,43.02
2023-03-30T10:43:28.217Z,45.60
2023-03-30T10:44:28.098Z,45.12
2023-03-30T10:45:28.090Z,48.98
2023-03-30T10:46:28.357Z,48.66
2023-03-30T10:47:28.221Z,50.43
2023-03-30T10:48:28.098Z,50.27
2023-03-30T10:49:28.061Z,51.72
2023-03-30T10:50:28.089Z,51.40
2023-03-30T10:51:28.045Z,51.40
2023-03-30T10:52:28.048Z,42.54
2023-03-30T10:53:28.062Z,49.47
2023-03-30T10:54:28.030Z,49.47
2023-03-30T10:55:28.033Z,47.05
2023-03-30T10:56:28.016Z,47.86
2023-03-30T10:57:28.019Z,51.88
2023-03-30T10:58:28.014Z,51.40
2023-03-30T10:59:28.002Z,46.25
2023-03-30T11:00:27.977Z,48.82
2023-03-30T11:01:28.027Z,52.37
2023-03-30T11:02:28.103Z,43.51
2023-03-30T11:03:28.042Z,43.83
2023-03-30T11:04:28.103Z,45.28
2023-03-30T11:05:30.391Z,47.37
2023-03-30T11:06:27.941Z,51.24
2023-03-30T11:07:28.037Z,45.28
2023-03-30T11:08:27.951Z,44.79
2023-03-30T11:09:28.066Z,51.24
2023-03-30T11:10:28.898Z,50.11
2023-03-30T11:11:27.917Z,49.79
2023-03-30T11:12:27.887Z,47.37
2023-03-30T11:13:27.906Z,47.05
2023-03-30T11:14:27.890Z,45.60
2023-03-30T11:15:27.903Z,46.73
2023-03-30T11:16:27.881Z,47.21
2023-03-30T11:17:27.934Z,49.15
2023-03-30T11:18:27.870Z,50.43
2023-03-30T11:19:27.828Z,53.01
2023-03-30T11:20:27.870Z,50.11
2023-03-30T11:21:27.819Z,46.89
2023-03-30T11:22:27.806Z,45.12
2023-03-30T11:23:27.847Z,50.27
2023-03-30T11:24:27.913Z,49.31
2023-03-30T11:25:27.794Z,46.08
2023-03-30T11:26:27.776Z,51.88
2023-03-30T11:27:27.827Z,49.15
2023-03-30T11:28:27.841Z,47.86
2023-03-30T11:29:27.766Z,43.51
2023-03-30T11:30:27.750Z,43.83
2023-03-30T11:31:27.751Z,49.15
2023-03-30T11:32:27.752Z,45.44
2023-03-30T11:33:27.749Z,46.08
2023-03-30T11:34:27.715Z,45.44
2023-03-30T11:35:27.727Z,45.76
2023-03-30T11:36:27.716Z,48.66
2023-03-30T11:37:27.726Z,45.76
2023-03-30T11:38:27.712Z,49.95
2023-03-30T11:39:32.303Z,43.99
2023-03-30T11:40:29.676Z,46.08
2023-03-30T11:41:27.665Z,53.50
2023-03-30T11:42:27.656Z,55.43
2023-03-30T11:43:27.682Z,46.89
2023-03-30T11:44:27.660Z,52.53
2023-03-30T11:45:27.630Z,51.40
2023-03-30T11:46:27.706Z,42.54
2023-03-30T11:47:27.707Z,47.21
2023-03-30T11:48:27.643Z,47.70
2023-03-30T11:49:27.601Z,48.82
2023-03-30T11:50:27.601Z,47.53
2023-03-30T11:51:27.594Z,53.98
2023-03-30T11:52:27.583Z,43.99
2023-03-30T11:53:27.589Z,49.47
2023-03-30T11:54:28.594Z,48.50
2023-03-30T11:55:27.563Z,53.98
2023-03-30T11:56:27.552Z,44.15
2023-03-30T11:57:27.592Z,50.43
2023-03-30T11:58:27.540Z,50.43
2023-03-30T11:59:27.555Z,50.76
2023-03-30T12:00:27.528Z,54.62
2023-03-30T12:01:27.528Z,53.82
2023-03-30T12:02:27.639Z,57.69
2023-03-30T12:03:27.662Z,58.17
2023-03-30T12:04:27.535Z,57.85
2023-03-30T12:05:27.520Z,58.01
2023-03-30T12:06:27.468Z,57.52
2023-03-30T12:07:27.491Z,57.52
2023-03-30T12:08:27.452Z,55.91
2023-03-30T12:09:27.527Z,55.75
2023-03-30T12:10:28.453Z,57.52
2023-03-30T12:11:27.428Z,54.62
2023-03-30T12:12:27.423Z,54.79
2023-03-30T12:13:28.385Z,53.17
2023-03-30T12:14:27.437Z,57.69
2023-03-30T12:15:27.401Z,56.56
2023-03-30T12:16:28.383Z,58.81
2023-03-30T12:17:28.440Z,56.07
2023-03-30T12:18:27.403Z,57.20
2023-03-30T12:19:27.401Z,55.75
2023-03-30T12:20:27.367Z,56.56
2023-03-30T12:21:27.350Z,56.88
2023-03-30T12:22:28.350Z,59.46
2023-03-30T12:23:27.345Z,59.30
2023-03-30T12:24:27.362Z,57.85
2023-03-30T12:25:27.321Z,57.69
2023-03-30T12:26:27.341Z,56.24
2023-03-30T12:27:27.373Z,54.30
2023-03-30T12:28:35.791Z,53.50
2023-03-30T12:30:28.298Z,53.66
2023-03-30T12:31:27.311Z,54.62
2023-03-30T12:32:29.044Z,52.37
2023-03-30T12:33:28.267Z,51.08
2023-03-30T12:34:27.304Z,54.30
2023-03-30T12:35:27.271Z,53.82
2023-03-30T12:36:27.246Z,54.62
2023-03-30T12:37:27.239Z,55.91
2023-03-30T12:38:27.275Z,54.30
2023-03-30T12:39:27.243Z,54.46
2023-03-30T12:40:27.234Z,55.43
2023-03-30T12:41:27.220Z,53.82
2023-03-30T12:42:27.236Z,53.50
2023-03-30T12:43:27.189Z,53.01
2023-03-30T12:44:27.209Z,53.98
2023-03-30T12:45:27.249Z,55.27
2023-03-30T12:46:27.223Z,53.66
2023-03-30T12:47:27.262Z,54.14
2023-03-30T12:48:27.150Z,51.72
2023-03-30T12:49:27.213Z,50.92
2023-03-30T12:50:27.129Z,54.79
2023-03-30T12:51:27.123Z,55.75
2023-03-30T12:52:27.124Z,46.57
2023-03-30T12:53:27.114Z,53.33